createdAt,value
2023-03-26T00:01:44.605Z,27.01
2023-03-26T00:05:45.864Z,26.98
2023-03-26T00:09:46.844Z,26.95
2023-03-26T00:13:45.744Z,26.98
2023-03-26T00:17:45.244Z,26.96
2023-03-26T00:21:45.717Z,26.90
2023-03-26T00:25:45.417Z,26.89
2023-03-26T00:29:45.742Z,26.86
2023-03-26T00:33:46.252Z,26.89
2023-03-26T00:37:46.055Z,26.84
2023-03-26T00:41:46.220Z,26.91
2023-03-26T00:45:52.150Z,26.88
2023-03-26T00:49:46.359Z,26.86
2023-03-26T00:53:46.386Z,26.84
2023-03-26T00:57:48.803Z,26.85
2023-03-26T01:01:46.276Z,26.83
2023-03-26T01:05:46.242Z,26.81
2023-03-26T01:09:46.204Z,26.80
2023-03-26T01:13:49.232Z,26.81
2023-03-26T01:17:49.224Z,26.79
2023-03-26T01:21:47.799Z,26.74
2023-03-26T01:25:46.037Z,26.73
2023-03-26T01:29:46.030Z,26.69
2023-03-26T01:33:46.348Z,26.70
2023-03-26T01:37:46.240Z,26.65
2023-03-26T01:41:46.734Z,26.67
2023-03-26T01:45:46.529Z,26.64
2023-03-26T01:49:46.752Z,26.67
2023-03-26T01:53:46.920Z,26.59
2023-03-26T01:57:47.247Z,26.57
2023-03-26T02:01:47.829Z,26.56
2023-03-26T02:05:47.375Z,26.55
2023-03-26T02:09:47.584Z,26.50
2023-03-26T02:13:48.287Z,26.54
2023-03-26T02:17:48.269Z,26.52
2023-03-26T02:21:48.175Z,26.53
2023-03-26T02:25:49.243Z,26.49
2023-03-26T02:29:48.567Z,26.46
2023-03-26T02:33:50.264Z,26.49
2023-03-26T02:37:49.234Z,26.51
2023-03-26T02:41:52.036Z,26.50
2023-03-26T02:45:49.259Z,26.50
2023-03-26T02:49:48.833Z,26.51
2023-03-26T02:53:48.797Z,26.51
2023-03-26T02:57:49.307Z,26.50
2023-03-26T03:01:48.711Z,26.51
2023-03-26T03:05:48.665Z,26.49
2023-03-26T03:09:48.769Z,26.50
2023-03-26T03:13:48.612Z,26.54
2023-03-26T03:17:48.584Z,26.53
2023-03-26T03:21:48.795Z,26.53
2023-03-26T03:25:48.817Z,26.50
2023-03-26T03:29:49.320Z,26.52
2023-03-26T03:33:49.183Z,26.52
2023-03-26T03:37:49.354Z,26.50
2023-03-26T03:41:49.830Z,26.50
2023-03-26T03:45:49.795Z,26.52
2023-03-26T03:49:49.914Z,26.48
2023-03-26T03:53:50.300Z,26.45
2023-03-26T03:57:50.338Z,26.50
2023-03-26T04:01:50.526Z,26.49
2023-03-26T04:05:50.595Z,26.51
2023-03-26T04:09:50.768Z,26.47
2023-03-26T04:13:50.971Z,26.50
2023-03-26T04:17:51.184Z,26.48
2023-03-26T04:21:51.380Z,26.48
2023-03-26T04:25:51.523Z,26.48
2023-03-26T04:29:51.820Z,26.49
2023-03-26T04:33:51.936Z,26.47
2023-03-26T04:37:52.276Z,26.45
2023-03-26T04:41:52.389Z,26.41
2023-03-26T04:45:53.071Z,26.42
2023-03-26T04:49:52.794Z,26.45
2023-03-26T04:53:52.986Z,26.46
2023-03-26T04:57:53.105Z,26.41
2023-03-26T05:01:53.383Z,26.43
2023-03-26T05:05:53.565Z,26.40
2023-03-26T05:09:53.620Z,26.33
2023-03-26T05:13:53.783Z,26.36
2023-03-26T05:17:53.984Z,26.39
2023-03-26T05:21:54.335Z,26.42
2023-03-26T05:25:54.292Z,26.40
2023-03-26T05:29:54.496Z,26.36
2023-03-26T05:33:54.640Z,26.38
2023-03-26T05:37:54.841Z,26.38
2023-03-26T05:41:54.943Z,26.39
2023-03-26T05:45:55.389Z,26.40
2023-03-26T05:49:55.477Z,26.38
2023-03-26T05:53:55.865Z,26.40
2023-03-26T05:57:55.645Z,26.38
2023-03-26T06:01:55.852Z,26.36
2023-03-26T06:05:56.310Z,26.36
2023-03-26T06:09:56.274Z,26.38
2023-03-26T06:13:56.849Z,26.34
2023-03-26T06:17:56.663Z,26.37
2023-03-26T06:21:56.866Z,26.34
2023-03-26T06:25:56.939Z,26.35
2023-03-26T06:29:57.129Z,26.36
2023-03-26T06:33:57.361Z,26.34
2023-03-26T06:37:57.448Z,26.34
2023-03-26T06:41:57.873Z,26.34
2023-03-26T06:45:57.826Z,26.34
2023-03-26T06:49:58.026Z,26.32
2023-03-26T06:53:58.364Z,26.33
2023-03-26T06:57:58.374Z,26.33
2023-03-26T07:01:58.578Z,26.30
2023-03-26T07:05:58.756Z,26.30
2023-03-26T07:09:59.481Z,26.27
2023-03-26T07:13:59.123Z,26.28
2023-03-26T07:17:59.396Z,26.26
2023-03-26T07:21:59.557Z,26.27
2023-03-26T07:25:59.746Z,26.26
2023-03-26T07:29:59.882Z,26.26
2023-03-26T07:34:00.377Z,26.27
2023-03-26T07:38:00.386Z,26.25
2023-03-26T07:42:00.437Z,26.21
2023-03-26T07:46:00.917Z,26.23
2023-03-26T07:50:00.892Z,26.19
2023-03-26T07:54:01.368Z,26.15
2023-03-26T07:58:01.378Z,26.15
2023-03-26T08:02:01.247Z,26.15
2023-03-26T08:06:01.413Z,26.16
2023-03-26T08:10:01.888Z,26.15
2023-03-26T08:14:01.833Z,26.15
2023-03-26T08:18:02.429Z,26.16
2023-03-26T08:22:02.209Z,26.18
2023-03-26T08:26:02.891Z,26.17
2023-03-26T08:30:02.582Z,26.16
2023-03-26T08:34:02.870Z,26.11
2023-03-26T08:38:02.961Z,26.10
2023-03-26T08:42:03.371Z,26.11
2023-03-26T08:46:03.412Z,26.12
2023-03-26T08:50:03.469Z,26.13
2023-03-26T08:54:03.895Z,26.10
2023-03-26T08:58:03.778Z,26.10
2023-03-26T09:02:03.964Z,26.09
2023-03-26T09:06:04.123Z,26.10
2023-03-26T09:10:04.371Z,26.09
2023-03-26T09:14:04.497Z,26.07
2023-03-26T09:18:04.776Z,26.05
2023-03-26T09:22:04.924Z,26.09
2023-03-26T09:26:04.964Z,26.08
2023-03-26T09:30:05.454Z,26.06
2023-03-26T09:34:05.376Z,26.08
2023-03-26T09:38:05.888Z,26.05
2023-03-26T09:42:05.920Z,26.07
2023-03-26T09:46:05.936Z,26.08
2023-03-26T09:50:06.057Z,26.06
2023-03-26T09:54:06.281Z,26.07
2023-03-26T09:58:06.504Z,26.06
2023-03-26T10:02:06.676Z,26.06
2023-03-26T10:06:06.883Z,26.06
2023-03-26T10:10:07.425Z,26.08
2023-03-26T10:14:07.111Z,26.08
2023-03-26T10:18:27.697Z,26.08
2023-03-26T10:22:08.447Z,26.09
2023-03-26T10:26:07.217Z,26.06
2023-03-26T10:30:07.357Z,26.07
2023-03-26T10:34:07.529Z,26.08
2023-03-26T10:38:07.803Z,26.09
2023-03-26T10:42:08.452Z,26.09
2023-03-26T10:46:08.454Z,26.07
2023-03-26T10:50:08.354Z,26.08
2023-03-26T10:54:08.938Z,26.09
2023-03-26T10:58:08.723Z,26.09
2023-03-26T11:02:08.845Z,26.10
2023-03-26T11:06:09.443Z,26.10
2023-03-26T11:10:09.160Z,26.12
2023-03-26T11:14:09.447Z,26.10
2023-03-26T11:18:09.494Z,26.09
2023-03-26T11:22:09.557Z,26.09
2023-03-26T11:26:09.944Z,26.09
2023-03-26T11:30:09.867Z,26.11
2023-03-26T11:34:10.466Z,26.07
2023-03-26T11:38:10.200Z,26.08
2023-03-26T11:42:10.490Z,26.10
2023-03-26T11:46:10.514Z,26.10
2023-03-26T11:50:10.963Z,26.09
2023-03-26T11:54:10.887Z,26.12
2023-03-26T11:58:11.478Z,26.12
2023-03-26T12:02:11.239Z,26.13
2023-03-26T12:06:11.307Z,26.14
2023-03-26T12:10:18.715Z,26.11
2023-03-26T12:14:12.424Z,26.13
2023-03-26T12:18:11.482Z,26.14
2023-03-26T12:22:11.385Z,26.14
2023-03-26T12:26:11.490Z,26.15
2023-03-26T12:30:12.047Z,26.16
2023-03-26T12:34:11.709Z,26.16
2023-03-26T12:38:11.976Z,26.14
2023-03-26T12:44:43.455Z,26.17
2023-03-26T12:47:55.027Z,26.20
2023-03-26T12:50:12.992Z,26.17
2023-03-26T12:54:11.850Z,26.17
2023-03-26T12:58:14.057Z,26.19
2023-03-26T13:02:19.585Z,26.20
2023-03-26T13:06:11.851Z,26.22
2023-03-26T13:10:12.005Z,26.28
2023-03-26T13:14:12.009Z,26.32
2023-03-26T13:18:12.002Z,26.38
2023-03-26T13:22:11.715Z,26.44
2023-03-26T13:26:11.661Z,26.51
2023-03-26T13:30:12.064Z,26.56
2023-03-26T13:34:12.120Z,26.61
2023-03-26T13:38:12.025Z,26.64
2023-03-26T13:42:12.049Z,26.67
2023-03-26T13:46:12.592Z,26.70
2023-03-26T13:50:12.228Z,26.77
2023-03-26T13:54:12.523Z,26.80
2023-03-26T13:58:12.510Z,26.83
2023-03-26T14:02:12.517Z,26.81
2023-03-26T14:06:12.647Z,26.89
2023-03-26T14:10:13.062Z,26.93
2023-03-26T14:14:13.014Z,26.98
2023-03-26T14:18:14.601Z,26.99
2023-03-26T14:22:13.202Z,27.00
2023-03-26T14:26:13.549Z,26.99
2023-03-26T14:30:13.509Z,27.06
2023-03-26T14:34:13.561Z,27.10
2023-03-26T14:38:13.640Z,27.16
2023-03-26T14:42:13.769Z,27.19
2023-03-26T14:46:14.058Z,27.22
2023-03-26T14:50:14.039Z,27.25
2023-03-26T14:54:14.134Z,27.32
2023-03-26T14:58:14.134Z,27.32
2023-03-26T15:02:14.242Z,27.36
2023-03-26T15:06:14.553Z,27.41
2023-03-26T15:10:14.538Z,27.45
2023-03-26T15:14:15.064Z,27.47
2023-03-26T15:18:14.707Z,27.49
2023-03-26T15:22:15.085Z,27.51
2023-03-26T15:26:14.987Z,27.53
2023-03-26T15:30:15.541Z,27.56
2023-03-26T15:34:16.082Z,27.56
2023-03-26T15:38:15.365Z,27.58
2023-03-26T15:42:15.571Z,27.62
2023-03-26T15:46:15.665Z,27.61
2023-03-26T15:50:16.126Z,27.66
2023-03-26T15:54:15.848Z,27.68
2023-03-26T15:58:16.087Z,27.71
2023-03-26T16:02:16.269Z,27.74
2023-03-26T16:06:16.338Z,27.77
2023-03-26T16:10:16.534Z,27.79
2023-03-26T16:14:16.625Z,27.82
2023-03-26T16:18:17.069Z,27.86
2023-03-26T16:22:17.076Z,27.89
2023-03-26T16:26:17.114Z,27.94
2023-03-26T16:30:20.215Z,27.96
2023-03-26T16:34:17.205Z,27.96
2023-03-26T16:38:17.554Z,28.00
2023-03-26T16:42:17.589Z,28.00
2023-03-26T16:46:17.114Z,28.01
2023-03-26T16:50:17.085Z,28.05
2023-03-26T16:54:17.111Z,28.06
2023-03-26T16:58:16.994Z,28.11
2023-03-26T17:02:16.947Z,28.11
2023-03-26T17:06:17.056Z,28.14
2023-03-26T17:10:16.879Z,28.15
2023-03-26T17:14:17.098Z,28.18
2023-03-26T17:18:17.173Z,28.18
2023-03-26T17:22:17.079Z,28.20
2023-03-26T17:26:17.100Z,28.21
2023-03-26T17:30:17.008Z,28.22
2023-03-26T17:34:17.090Z,28.25
2023-03-26T17:38:17.621Z,28.27
2023-03-26T17:42:17.590Z,28.28
2023-03-26T17:46:17.359Z,28.31
2023-03-26T17:50:17.587Z,28.30
2023-03-26T17:54:17.581Z,28.34
2023-03-26T17:58:18.109Z,28.34
2023-03-26T18:02:17.821Z,28.34
2023-03-26T18:06:17.899Z,28.35
2023-03-26T18:10:18.091Z,28.33
2023-03-26T18:14:18.163Z,28.35
2023-03-26T18:18:18.620Z,28.36
2023-03-26T18:22:18.493Z,28.38
2023-03-26T18:26:18.616Z,28.40
2023-03-26T18:30:18.716Z,28.44
2023-03-26T18:34:19.128Z,28.50
2023-03-26T18:38:19.115Z,28.49
2023-03-26T18:42:23.206Z,28.51
2023-03-26T18:46:20.112Z,28.55
2023-03-26T18:50:19.115Z,28.55
2023-03-26T18:54:18.813Z,28.57
2023-03-26T18:58:19.113Z,28.57
2023-03-26T19:02:18.762Z,28.57
2023-03-26T19:06:19.229Z,28.61
2023-03-26T19:10:18.612Z,28.60
2023-03-26T19:14:19.145Z,28.60
2023-03-26T19:18:19.183Z,28.62
2023-03-26T19:22:18.978Z,28.63
2023-03-26T19:26:19.133Z,28.63
2023-03-26T19:30:19.644Z,28.64
2023-03-26T19:34:19.646Z,28.65
2023-03-26T19:38:19.626Z,28.64
2023-03-26T19:42:19.757Z,28.62
2023-03-26T19:46:20.162Z,28.62
2023-03-26T19:50:20.120Z,28.64
2023-03-26T19:54:20.155Z,28.62
2023-03-26T19:58:20.300Z,28.66
2023-03-26T20:02:20.420Z,28.67
2023-03-26T20:06:22.198Z,28.67
2023-03-26T20:10:21.633Z,28.69
2023-03-26T20:14:20.636Z,28.71
2023-03-26T20:18:20.529Z,28.72
2023-03-26T20:22:20.661Z,28.71
2023-03-26T20:26:21.168Z,28.70
2023-03-26T20:30:36.860Z,28.72
2023-03-26T20:34:22.186Z,28.71
2023-03-26T20:38:26.556Z,28.75
2023-03-26T20:42:22.159Z,28.76
2023-03-26T20:46:21.180Z,28.76
2023-03-26T20:50:21.150Z,28.77
2023-03-26T20:54:20.942Z,28.72
2023-03-26T20:58:31.366Z,28.78
2023-03-26T21:02:22.107Z,28.78
2023-03-26T21:06:21.182Z,28.77
2023-03-26T21:10:21.163Z,28.77
2023-03-26T21:14:21.211Z,28.78
2023-03-26T21:18:21.672Z,28.81
2023-03-26T21:22:21.682Z,28.79
2023-03-26T21:26:22.189Z,28.78
2023-03-26T21:30:21.829Z,28.78
2023-03-26T21:34:21.997Z,28.79
2023-03-26T21:38:22.700Z,28.78
2023-03-26T21:42:22.693Z,28.77
2023-03-26T21:46:22.720Z,28.78
2023-03-26T21:50:22.665Z,28.76
2023-03-26T21:54:22.768Z,28.79
2023-03-26T21:58:23.197Z,28.78
2023-03-26T22:02:23.159Z,28.78
2023-03-26T22:06:23.673Z,28.77
2023-03-26T22:10:23.717Z,28.75
2023-03-26T22:14:23.533Z,28.75
2023-03-26T22:18:24.177Z,28.75
2023-03-26T22:22:24.196Z,28.76
2023-03-26T22:26:24.183Z,28.78
2023-03-26T22:30:24.182Z,28.79
2023-03-26T22:34:24.695Z,28.78
2023-03-26T22:38:24.434Z,28.76
2023-03-26T22:42:24.696Z,28.76
2023-03-26T22:46:25.267Z,28.75
2023-03-26T22:50:24.860Z,28.75
2023-03-26T22:54:25.036Z,28.74
2023-03-26T22:58:25.737Z,28.76
2023-03-26T23:02:25.415Z,28.73
2023-03-26T23:06:25.716Z,28.73
2023-03-26T23:10:25.682Z,28.70
2023-03-26T23:14:26.233Z,28.74
2023-03-26T23:18:25.982Z,28.71
2023-03-26T23:22:26.226Z,28.73
2023-03-26T23:26:26.192Z,28.71
2023-03-26T23:30:26.231Z,28.72
2023-03-26T23:34:26.374Z,28.70
2023-03-26T23:38:26.720Z,28.68
2023-03-26T23:42:28.303Z,28.68
2023-03-26T23:46:26.681Z,28.67
2023-03-26T23:50:26.620Z,28.66
2023-03-26T23:54:26.736Z,28.66
2023-03-26T23:58:26.512Z,28.64
